createdAt,value
2019-05-25T00:00:30.639Z,13.41
2019-05-25T00:01:30.568Z,13.40
2019-05-25T00:02:30.489Z,13.27
2019-05-25T00:03:30.413Z,13.28
2019-05-25T00:04:30.338Z,13.27
2019-05-25T00:05:30.267Z,13.27
2019-05-25T00:06:30.225Z,13.37
2019-05-25T00:07:30.112Z,13.32
2019-05-25T00:08:30.040Z,13.32
2019-05-25T00:09:29.962Z,13.27
2019-05-25T00:10:29.888Z,13.37
2019-05-25T00:11:29.811Z,13.29
2019-05-25T00:12:29.836Z,13.32
2019-05-25T00:13:29.668Z,13.33
2019-05-25T00:14:29.585Z,13.27
2019-05-25T00:15:29.514Z,13.29
2019-05-25T00:16:29.435Z,13.37
2019-05-25T00:17:29.361Z,13.37
2019-05-25T00:18:29.284Z,13.36
2019-05-25T00:19:29.211Z,13.37
2019-05-25T00:20:29.143Z,13.38
2019-05-25T00:21:29.062Z,13.40
2019-05-25T00:22:28.985Z,13.44
2019-05-25T00:23:28.911Z,13.37
2019-05-25T00:24:28.837Z,13.43
2019-05-25T00:25:28.761Z,13.38
2019-05-25T00:26:28.684Z,13.48
2019-05-25T00:27:28.609Z,13.50
2019-05-25T00:28:28.535Z,13.48
2019-05-25T00:29:28.530Z,13.50
2019-05-25T00:30:28.384Z,13.47
2019-05-25T00:31:28.317Z,13.48
2019-05-25T00:32:28.234Z,13.53
2019-05-25T00:33:28.160Z,13.45
2019-05-25T00:34:28.083Z,13.44
2019-05-25T00:35:28.009Z,13.41
2019-05-25T00:36:27.936Z,13.40
2019-05-25T00:37:27.859Z,13.41
2019-05-25T00:38:27.783Z,13.43
2019-05-25T00:39:27.722Z,13.29
2019-05-25T00:40:27.633Z,13.32
2019-05-25T00:41:27.559Z,13.18
2019-05-25T00:42:27.494Z,13.25
2019-05-25T00:43:27.409Z,13.15
2019-05-25T00:44:27.347Z,13.04
2019-05-25T00:45:27.259Z,13.14
2019-05-25T00:46:27.183Z,13.06
2019-05-25T00:47:27.107Z,13.04
2019-05-25T00:48:27.033Z,13.02
2019-05-25T00:49:26.959Z,13.09
2019-05-25T00:50:26.881Z,13.03
2019-05-25T00:51:26.807Z,13.07
2019-05-25T00:52:26.731Z,13.09
2019-05-25T00:53:26.656Z,13.03
2019-05-25T00:54:28.261Z,13.06
2019-05-25T00:55:26.504Z,13.06
2019-05-25T00:56:26.429Z,13.06
2019-05-25T00:57:26.354Z,13.06
2019-05-25T00:58:26.279Z,13.09
2019-05-25T00:59:26.207Z,13.10
2019-05-25T01:00:26.127Z,13.11
2019-05-25T01:01:26.053Z,13.04
2019-05-25T01:02:25.977Z,13.09
2019-05-25T01:03:25.903Z,13.09
2019-05-25T01:04:25.828Z,13.10
2019-05-25T01:05:25.752Z,13.06
2019-05-25T01:06:25.679Z,13.15
2019-05-25T01:07:25.602Z,13.06
2019-05-25T01:08:25.527Z,13.09
2019-05-25T01:09:25.451Z,13.09
2019-05-25T01:10:25.374Z,13.18
2019-05-25T01:11:25.405Z,13.15
2019-05-25T01:12:25.222Z,13.06
2019-05-25T01:13:25.150Z,13.15
2019-05-25T01:14:25.073Z,13.11
2019-05-25T01:15:24.999Z,13.22
2019-05-25T01:16:24.926Z,13.14
2019-05-25T01:17:24.848Z,13.22
2019-05-25T01:18:24.778Z,13.11
2019-05-25T01:19:24.698Z,13.24
2019-05-25T01:20:24.621Z,13.22
2019-05-25T01:21:24.545Z,13.17
2019-05-25T01:22:24.470Z,13.21
2019-05-25T01:23:24.395Z,13.29
2019-05-25T01:24:24.320Z,13.22
2019-05-25T01:25:24.245Z,13.24
2019-05-25T01:26:24.169Z,13.21
2019-05-25T01:27:24.094Z,13.27
2019-05-25T01:28:24.020Z,13.28
2019-05-25T01:29:23.944Z,13.38
2019-05-25T01:30:23.867Z,13.40
2019-05-25T01:31:23.793Z,13.40
2019-05-25T01:32:23.831Z,13.40
2019-05-25T01:33:23.643Z,13.41
2019-05-25T01:34:23.566Z,13.33
2019-05-25T01:35:23.491Z,13.43
2019-05-25T01:36:23.416Z,13.47
2019-05-25T01:37:23.358Z,13.43
2019-05-25T01:38:23.265Z,13.52
2019-05-25T01:39:23.189Z,13.56
2019-05-25T01:40:23.114Z,13.52
2019-05-25T01:41:23.041Z,13.58
2019-05-25T01:42:22.964Z,13.52
2019-05-25T01:43:22.889Z,13.50
2019-05-25T01:44:22.812Z,13.44
2019-05-25T01:45:22.737Z,13.56
2019-05-25T01:46:22.662Z,13.63
2019-05-25T01:47:22.587Z,13.63
2019-05-25T01:48:22.513Z,13.66
2019-05-25T01:49:22.436Z,13.66
2019-05-25T01:50:22.363Z,13.68
2019-05-25T01:51:22.285Z,13.73
2019-05-25T01:52:22.210Z,13.71
2019-05-25T01:53:22.237Z,13.78
2019-05-25T01:54:22.064Z,13.83
2019-05-25T01:55:21.984Z,13.71
2019-05-25T01:56:21.911Z,13.81
2019-05-25T01:57:21.834Z,13.86
2019-05-25T01:58:21.859Z,13.87
2019-05-25T01:59:21.685Z,13.86
2019-05-25T02:00:21.610Z,13.92
2019-05-25T02:01:21.536Z,13.91
2019-05-25T02:02:21.459Z,13.96
2019-05-25T02:03:21.499Z,13.92
2019-05-25T02:04:21.309Z,13.96
2019-05-25T02:05:21.235Z,13.89
2019-05-25T02:06:21.159Z,13.94
2019-05-25T02:07:21.084Z,13.99
2019-05-25T02:08:21.010Z,13.96
2019-05-25T02:09:20.934Z,13.98
2019-05-25T02:10:20.857Z,13.99
2019-05-25T02:11:20.783Z,13.95
2019-05-25T02:12:20.714Z,13.91
2019-05-25T02:13:20.634Z,13.96
2019-05-25T02:14:20.559Z,13.98
2019-05-25T02:15:20.482Z,13.94
2019-05-25T02:16:20.417Z,13.95
2019-05-25T02:17:20.333Z,13.95
2019-05-25T02:18:20.258Z,14.01
2019-05-25T02:19:20.183Z,13.94
2019-05-25T02:20:20.115Z,13.99
2019-05-25T02:21:20.037Z,14.10
2019-05-25T02:22:19.959Z,13.99
2019-05-25T02:23:19.884Z,14.02
2019-05-25T02:24:19.809Z,14.07
2019-05-25T02:25:19.734Z,14.10
2019-05-25T02:26:19.660Z,14.10
2019-05-25T02:27:19.583Z,14.10
2019-05-25T02:28:19.511Z,14.14
2019-05-25T02:29:19.484Z,14.16
2019-05-25T02:30:19.429Z,14.13
2019-05-25T02:31:19.289Z,14.11
2019-05-25T02:32:19.208Z,14.20
2019-05-25T02:33:19.135Z,14.20
2019-05-25T02:34:19.078Z,14.10
2019-05-25T02:35:19.083Z,14.10
2019-05-25T02:36:20.749Z,14.01
2019-05-25T02:37:18.835Z,13.77
2019-05-25T02:38:18.760Z,13.76
2019-05-25T02:39:18.686Z,13.61
2019-05-25T02:40:18.611Z,13.58
2019-05-25T02:41:18.535Z,13.56
2019-05-25T02:42:18.458Z,13.48
2019-05-25T02:43:18.385Z,13.44
2019-05-25T02:44:18.310Z,13.25
2019-05-25T02:45:18.237Z,13.28
2019-05-25T02:46:18.181Z,13.32
2019-05-25T02:47:18.099Z,13.32
2019-05-25T02:48:18.054Z,13.43
2019-05-25T02:49:17.934Z,13.37
2019-05-25T02:50:17.865Z,13.44
2019-05-25T02:51:17.783Z,13.40
2019-05-25T02:52:17.738Z,13.43
2019-05-25T02:53:17.632Z,13.45
2019-05-25T02:54:17.557Z,13.47
2019-05-25T02:55:32.961Z,13.55
2019-05-25T02:56:17.408Z,13.53
2019-05-25T02:57:17.333Z,13.58
2019-05-25T02:58:17.255Z,13.52
2019-05-25T02:59:17.180Z,13.53
2019-05-25T03:00:17.105Z,13.58
2019-05-25T03:01:17.032Z,13.61
2019-05-25T03:02:16.954Z,13.59
2019-05-25T03:03:16.881Z,13.59
2019-05-25T03:04:16.802Z,13.66
2019-05-25T03:05:16.731Z,13.71
2019-05-25T03:06:16.705Z,13.83
2019-05-25T03:07:16.577Z,13.98
2019-05-25T03:08:16.501Z,14.03
2019-05-25T03:09:16.427Z,14.10
2019-05-25T03:10:16.353Z,14.10
2019-05-25T03:11:16.278Z,14.11
2019-05-25T03:12:16.203Z,14.07
2019-05-25T03:13:16.126Z,14.07
2019-05-25T03:14:16.052Z,14.03
2019-05-25T03:15:15.980Z,13.95
2019-05-25T03:16:15.903Z,14.07
2019-05-25T03:17:15.824Z,14.13
2019-05-25T03:18:15.748Z,14.16
2019-05-25T03:19:15.674Z,14.24
2019-05-25T03:20:15.599Z,14.31
2019-05-25T03:21:15.523Z,14.28
2019-05-25T03:22:15.451Z,14.19
2019-05-25T03:23:15.379Z,14.13
2019-05-25T03:24:15.298Z,13.99
2019-05-25T03:25:15.224Z,13.95
2019-05-25T03:26:15.149Z,13.89
2019-05-25T03:27:15.172Z,13.83
2019-05-25T03:28:15.004Z,13.84
2019-05-25T03:29:14.923Z,13.77
2019-05-25T03:30:14.852Z,13.77
2019-05-25T03:31:14.774Z,13.68
2019-05-25T03:32:14.697Z,13.58
2019-05-25T03:33:14.623Z,13.59
2019-05-25T03:34:14.548Z,13.58
2019-05-25T03:35:14.498Z,13.53
2019-05-25T03:36:14.403Z,13.55
2019-05-25T03:37:14.323Z,13.56
2019-05-25T03:38:14.252Z,13.56
2019-05-25T03:39:14.171Z,13.58
2019-05-25T03:40:14.096Z,13.61
2019-05-25T03:41:14.021Z,13.65
2019-05-25T03:42:13.946Z,13.62
2019-05-25T03:43:13.968Z,13.70
2019-05-25T03:44:13.794Z,13.71
2019-05-25T03:45:13.719Z,13.70
2019-05-25T03:46:13.644Z,13.74
2019-05-25T03:47:13.568Z,13.66
2019-05-25T03:48:13.492Z,13.80
2019-05-25T03:49:13.419Z,13.74
2019-05-25T03:50:13.342Z,13.68
2019-05-25T03:51:13.269Z,13.71
2019-05-25T03:52:13.191Z,13.71
2019-05-25T03:53:13.117Z,13.73
2019-05-25T03:54:13.141Z,13.76
2019-05-25T03:55:12.966Z,13.77
2019-05-25T03:56:12.891Z,13.73
2019-05-25T03:57:12.815Z,13.76
2019-05-25T03:58:12.739Z,13.76
2019-05-25T03:59:12.667Z,13.76
2019-05-25T04:00:12.590Z,13.78
2019-05-25T04:01:12.514Z,13.73
2019-05-25T04:02:12.438Z,13.74
2019-05-25T04:03:12.363Z,13.76
2019-05-25T04:04:12.288Z,13.73
2019-05-25T04:05:12.213Z,13.76
2019-05-25T04:06:12.139Z,13.80
2019-05-25T04:07:12.063Z,13.87
2019-05-25T04:08:11.991Z,13.86
2019-05-25T04:09:11.912Z,13.83
2019-05-25T04:10:11.836Z,13.84
2019-05-25T04:11:11.761Z,13.84
2019-05-25T04:12:11.685Z,13.92
2019-05-25T04:13:11.610Z,13.83
2019-05-25T04:14:11.535Z,13.81
2019-05-25T04:15:11.460Z,13.86
2019-05-25T04:16:11.385Z,13.83
2019-05-25T04:17:11.309Z,13.87
2019-05-25T04:18:11.233Z,13.84
2019-05-25T04:19:11.159Z,13.87
2019-05-25T04:20:11.082Z,13.87
2019-05-25T04:21:11.008Z,13.84
2019-05-25T04:22:10.933Z,13.95
2019-05-25T04:23:10.856Z,13.94
2019-05-25T04:24:10.781Z,13.86
2019-05-25T04:25:10.714Z,13.94
2019-05-25T04:26:21.905Z,13.92
2019-05-25T04:27:10.558Z,13.81
2019-05-25T04:28:10.486Z,13.94
2019-05-25T04:29:10.407Z,13.81
2019-05-25T04:30:10.331Z,13.95
2019-05-25T04:31:10.291Z,13.84
2019-05-25T04:32:10.181Z,13.92
2019-05-25T04:33:10.106Z,13.80
2019-05-25T04:34:10.030Z,13.99
2019-05-25T04:35:09.955Z,13.89
2019-05-25T04:36:09.881Z,13.98
2019-05-25T04:37:09.805Z,13.95
2019-05-25T04:38:09.730Z,13.80
2019-05-25T04:39:09.655Z,13.98
2019-05-25T04:40:09.580Z,13.94
2019-05-25T04:41:09.511Z,13.96
2019-05-25T04:42:09.429Z,13.92
2019-05-25T04:43:09.355Z,13.89
2019-05-25T04:44:09.280Z,13.99
2019-05-25T04:45:09.206Z,13.99
2019-05-25T04:46:09.130Z,13.96
2019-05-25T04:47:09.057Z,14.03
2019-05-25T04:48:08.979Z,14.05
2019-05-25T04:49:08.905Z,14.10
2019-05-25T04:50:08.839Z,14.09
2019-05-25T04:51:08.758Z,14.09
2019-05-25T04:52:08.681Z,14.05
2019-05-25T04:53:08.605Z,14.10
2019-05-25T04:54:08.529Z,14.02
2019-05-25T04:55:08.456Z,14.03
2019-05-25T04:56:08.481Z,14.10
2019-05-25T04:57:08.725Z,14.05
2019-05-25T04:58:08.231Z,14.10
2019-05-25T04:59:08.155Z,14.11
2019-05-25T05:00:08.085Z,14.21
2019-05-25T05:01:08.007Z,14.11
2019-05-25T05:02:07.932Z,14.19
2019-05-25T05:03:07.855Z,14.11
2019-05-25T05:04:07.782Z,14.16
2019-05-25T05:05:07.711Z,14.20
2019-05-25T05:06:07.637Z,14.24
2019-05-25T05:07:07.556Z,14.20
2019-05-25T05:08:07.482Z,14.29
2019-05-25T05:09:07.407Z,14.21
2019-05-25T05:10:07.338Z,14.28
2019-05-25T05:11:07.262Z,14.36
2019-05-25T05:12:07.183Z,14.32
2019-05-25T05:13:07.112Z,14.35
2019-05-25T05:14:07.032Z,14.39
2019-05-25T05:15:06.964Z,14.41
2019-05-25T05:16:06.890Z,14.60
2019-05-25T05:17:06.811Z,14.52
2019-05-25T05:18:06.734Z,14.60
2019-05-25T05:19:06.660Z,14.56
2019-05-25T05:20:06.586Z,14.71
2019-05-25T05:21:06.513Z,14.75
2019-05-25T05:22:06.440Z,14.83
2019-05-25T05:23:06.391Z,14.80
2019-05-25T05:24:06.292Z,14.85
2019-05-25T05:25:06.215Z,14.97
2019-05-25T05:26:06.197Z,14.93
2019-05-25T05:27:06.070Z,14.98
2019-05-25T05:28:05.992Z,14.91
2019-05-25T05:29:05.919Z,15.01
2019-05-25T05:30:05.843Z,15.02
2019-05-25T05:31:05.773Z,15.10
2019-05-25T05:32:05.697Z,15.08
2019-05-25T05:33:05.622Z,15.13
2019-05-25T05:34:05.548Z,15.18
2019-05-25T05:35:05.477Z,15.24
2019-05-25T05:36:05.399Z,15.21
2019-05-25T05:37:05.326Z,15.24
2019-05-25T05:38:05.250Z,15.23
2019-05-25T05:39:05.178Z,15.24
2019-05-25T05:40:05.111Z,15.23
2019-05-25T05:41:05.031Z,15.27
2019-05-25T05:42:04.956Z,15.27
2019-05-25T05:43:04.881Z,15.23
2019-05-25T05:44:04.809Z,15.24
2019-05-25T05:45:04.741Z,15.27
2019-05-25T05:46:04.660Z,15.38
2019-05-25T05:47:04.694Z,15.35
2019-05-25T05:48:04.514Z,15.35
2019-05-25T05:49:04.439Z,15.39
2019-05-25T05:50:04.366Z,15.38
2019-05-25T05:51:04.291Z,15.43
2019-05-25T05:52:04.269Z,15.42
2019-05-25T05:53:04.169Z,15.42
2019-05-25T05:54:04.069Z,15.43
2019-05-25T05:55:03.997Z,15.46
2019-05-25T05:56:03.925Z,15.55
2019-05-25T05:57:12.296Z,15.46
2019-05-25T05:58:03.773Z,15.51
2019-05-25T05:59:03.701Z,15.59
2019-05-25T06:00:03.627Z,15.53
2019-05-25T06:01:03.555Z,15.48
2019-05-25T06:02:03.508Z,15.49
2019-05-25T06:03:03.405Z,15.43
2019-05-25T06:04:03.334Z,15.48
2019-05-25T06:05:03.627Z,15.43
2019-05-25T06:06:03.184Z,15.53
2019-05-25T06:07:03.113Z,15.59
2019-05-25T06:08:03.039Z,15.59
2019-05-25T06:09:02.965Z,15.61
2019-05-25T06:10:02.893Z,15.66
2019-05-25T06:11:02.817Z,15.67
2019-05-25T06:12:02.742Z,15.76
2019-05-25T06:13:02.670Z,15.73
2019-05-25T06:14:02.598Z,15.71
2019-05-25T06:15:02.635Z,15.67
2019-05-25T06:16:02.451Z,15.68
2019-05-25T06:17:02.375Z,15.66
2019-05-25T06:18:02.406Z,15.60
2019-05-25T06:19:02.229Z,15.63
2019-05-25T06:20:02.155Z,15.59
2019-05-25T06:21:02.082Z,15.60
2019-05-25T06:22:02.018Z,15.59
2019-05-25T06:23:01.934Z,15.57
2019-05-25T06:24:01.861Z,15.57
2019-05-25T06:25:01.788Z,15.51
2019-05-25T06:26:01.713Z,15.60
2019-05-25T06:27:01.641Z,15.57
2019-05-25T06:28:01.566Z,15.59
2019-05-25T06:29:01.493Z,15.52
2019-05-25T06:30:01.418Z,15.52
2019-05-25T06:31:01.406Z,15.53
2019-05-25T06:32:01.277Z,15.53
2019-05-25T06:33:01.200Z,15.48
2019-05-25T06:34:01.127Z,15.48
2019-05-25T06:35:01.051Z,15.41
2019-05-25T06:36:00.980Z,15.45
2019-05-25T06:37:00.904Z,15.52
2019-05-25T06:38:00.831Z,15.57
2019-05-25T06:39:00.758Z,15.67
2019-05-25T06:40:00.685Z,15.68
2019-05-25T06:41:00.616Z,15.68
2019-05-25T06:42:00.537Z,15.68
2019-05-25T06:43:00.463Z,15.83
2019-05-25T06:44:00.391Z,15.71
2019-05-25T06:45:00.316Z,15.71
2019-05-25T06:46:00.243Z,15.75
2019-05-25T06:47:00.171Z,15.63
2019-05-25T06:48:00.095Z,15.71
2019-05-25T06:49:00.025Z,15.66
2019-05-25T06:49:59.949Z,15.66
2019-05-25T06:50:59.875Z,15.63
2019-05-25T06:51:59.802Z,15.67
2019-05-25T06:52:59.734Z,15.75
2019-05-25T06:53:59.653Z,15.76
2019-05-25T06:54:59.580Z,15.86
2019-05-25T06:55:59.508Z,15.68
2019-05-25T06:56:59.435Z,15.68
2019-05-25T06:57:59.362Z,15.68
2019-05-25T06:58:59.391Z,15.78
2019-05-25T06:59:59.213Z,15.91
2019-05-25T07:00:59.141Z,15.99
2019-05-25T07:01:59.066Z,16.06
2019-05-25T07:02:58.993Z,16.03
2019-05-25T07:03:58.920Z,15.91
2019-05-25T07:04:58.846Z,16.03
2019-05-25T07:05:58.775Z,15.99
2019-05-25T07:06:58.699Z,16.03
2019-05-25T07:07:58.626Z,16.07
2019-05-25T07:08:58.555Z,16.06
2019-05-25T07:09:58.480Z,16.10
2019-05-25T07:10:58.407Z,16.08
2019-05-25T07:11:58.334Z,16.30
2019-05-25T07:12:58.259Z,16.45
2019-05-25T07:13:58.186Z,16.57
2019-05-25T07:14:58.136Z,16.75
2019-05-25T07:15:58.041Z,16.82
2019-05-25T07:16:57.968Z,16.67
2019-05-25T07:17:57.898Z,16.57
2019-05-25T07:18:57.920Z,16.73
2019-05-25T07:19:57.749Z,16.67
2019-05-25T07:20:57.677Z,16.66
2019-05-25T07:21:57.602Z,16.67
2019-05-25T07:22:57.528Z,16.85
2019-05-25T07:23:57.456Z,17.08
2019-05-25T07:24:57.383Z,17.15
2019-05-25T07:25:57.311Z,17.28
2019-05-25T07:26:57.240Z,17.26
2019-05-25T07:28:00.160Z,17.28
2019-05-25T07:28:57.093Z,17.28
2019-05-25T07:29:57.020Z,17.30
2019-05-25T07:30:56.948Z,17.28
2019-05-25T07:31:56.875Z,17.07
2019-05-25T07:32:56.847Z,17.20
2019-05-25T07:33:56.731Z,17.15
2019-05-25T07:34:56.659Z,17.29
2019-05-25T07:35:56.588Z,17.25
2019-05-25T07:36:56.512Z,17.23
2019-05-25T07:37:56.444Z,17.36
2019-05-25T07:38:56.368Z,17.39
2019-05-25T07:39:56.296Z,17.50
2019-05-25T07:40:56.225Z,17.60
2019-05-25T07:41:56.157Z,17.81
2019-05-25T07:42:56.080Z,17.92
2019-05-25T07:43:56.008Z,17.92
2019-05-25T07:44:55.935Z,17.95
2019-05-25T07:45:55.865Z,17.76
2019-05-25T07:46:55.793Z,17.71
2019-05-25T07:47:55.737Z,17.46
2019-05-25T07:48:55.648Z,17.43
2019-05-25T07:49:55.575Z,17.46
2019-05-25T07:50:55.503Z,17.40
2019-05-25T07:51:55.433Z,17.51
2019-05-25T07:52:55.359Z,17.57
2019-05-25T07:53:55.287Z,17.66
2019-05-25T07:54:55.216Z,17.67
2019-05-25T07:55:55.143Z,17.67
2019-05-25T07:56:55.070Z,17.73
2019-05-25T07:57:54.998Z,17.57
2019-05-25T07:58:54.925Z,17.46
2019-05-25T07:59:54.855Z,17.46
2019-05-25T08:00:54.782Z,17.32
2019-05-25T08:01:54.709Z,17.40
2019-05-25T08:02:54.638Z,17.38
2019-05-25T08:03:54.567Z,17.39
2019-05-25T08:04:54.493Z,17.47
2019-05-25T08:05:54.421Z,17.32
2019-05-25T08:06:54.442Z,17.38
2019-05-25T08:07:54.279Z,17.30
2019-05-25T08:08:54.205Z,17.40
2019-05-25T08:09:54.139Z,17.53
2019-05-25T08:10:54.063Z,17.50
2019-05-25T08:11:53.990Z,17.57
2019-05-25T08:12:53.922Z,17.67
2019-05-25T08:13:53.843Z,17.69
2019-05-25T08:14:53.773Z,17.70
2019-05-25T08:15:53.701Z,17.79
2019-05-25T08:16:53.628Z,17.76
2019-05-25T08:17:53.556Z,17.79
2019-05-25T08:18:53.483Z,17.95
2019-05-25T08:19:53.411Z,17.96
2019-05-25T08:20:53.340Z,17.98
2019-05-25T08:21:53.266Z,17.94
2019-05-25T08:22:53.195Z,17.84
2019-05-25T08:23:53.127Z,17.66
2019-05-25T08:24:53.052Z,17.71
2019-05-25T08:25:52.978Z,17.85
2019-05-25T08:26:52.906Z,17.91
2019-05-25T08:27:52.835Z,17.81
2019-05-25T08:28:52.768Z,17.79
2019-05-25T08:29:52.689Z,17.88
2019-05-25T08:30:52.620Z,17.94
2019-05-25T08:31:52.545Z,17.96
2019-05-25T08:32:52.473Z,17.91
2019-05-25T08:33:52.399Z,17.98
2019-05-25T08:34:52.330Z,18.13
2019-05-25T08:35:52.257Z,18.16
2019-05-25T08:36:52.184Z,18.16
2019-05-25T08:37:52.112Z,18.40
2019-05-25T08:38:54.820Z,18.35
2019-05-25T08:39:51.968Z,18.44
2019-05-25T08:40:51.895Z,18.61
2019-05-25T08:41:51.822Z,18.49
2019-05-25T08:42:51.754Z,18.52
2019-05-25T08:43:51.678Z,18.42
2019-05-25T08:44:51.607Z,18.43
2019-05-25T08:45:51.535Z,18.49
2019-05-25T08:46:51.462Z,18.35
2019-05-25T08:47:51.499Z,18.43
2019-05-25T08:48:51.320Z,18.49
2019-05-25T08:49:51.247Z,18.49
2019-05-25T08:50:51.174Z,18.61
2019-05-25T08:51:51.103Z,18.77
2019-05-25T08:52:51.030Z,18.74
2019-05-25T08:53:50.965Z,18.95
2019-05-25T08:54:50.886Z,18.90
2019-05-25T08:55:50.831Z,18.95
2019-05-25T08:56:50.790Z,18.92
2019-05-25T08:57:50.670Z,18.94
2019-05-25T08:58:50.597Z,19.13
2019-05-25T08:59:50.527Z,19.24
2019-05-25T09:00:50.458Z,19.27
2019-05-25T09:01:50.478Z,19.35
2019-05-25T09:02:50.310Z,19.23
2019-05-25T09:03:50.239Z,19.13
2019-05-25T09:04:50.166Z,19.11
2019-05-25T09:05:50.093Z,19.23
2019-05-25T09:06:50.025Z,19.39
2019-05-25T09:07:49.951Z,19.50
2019-05-25T09:08:49.879Z,19.54
2019-05-25T09:09:49.807Z,19.54
2019-05-25T09:10:49.736Z,19.71
2019-05-25T09:11:49.664Z,19.73
2019-05-25T09:12:49.638Z,19.91
2019-05-25T09:13:49.573Z,19.98
2019-05-25T09:14:49.452Z,19.63
2019-05-25T09:15:49.381Z,19.65
2019-05-25T09:16:49.306Z,19.55
2019-05-25T09:17:49.235Z,19.71
2019-05-25T09:18:49.280Z,19.72
2019-05-25T09:19:49.092Z,19.82
2019-05-25T09:20:49.024Z,19.86
2019-05-25T09:22:02.225Z,20.01
2019-05-25T09:22:48.879Z,20.18
2019-05-25T09:23:49.035Z,20.20
2019-05-25T09:24:48.738Z,20.20
2019-05-25T09:25:48.664Z,20.13
2019-05-25T09:26:48.595Z,20.06
2019-05-25T09:27:48.526Z,20.05
2019-05-25T09:29:03.128Z,19.90
2019-05-25T09:29:48.380Z,19.88
2019-05-25T09:30:48.311Z,19.93
2019-05-25T09:31:48.240Z,19.90
2019-05-25T09:32:48.168Z,19.88
2019-05-25T09:33:48.096Z,19.72
2019-05-25T09:34:48.032Z,19.91
2019-05-25T09:35:47.954Z,19.95
2019-05-25T09:36:47.885Z,19.97
2019-05-25T09:37:47.812Z,20.15
2019-05-25T09:38:47.742Z,19.93
2019-05-25T09:39:47.681Z,20.03
2019-05-25T09:40:47.599Z,20.15
2019-05-25T09:41:47.535Z,20.20
2019-05-25T09:42:47.474Z,20.35
2019-05-25T09:43:47.588Z,20.13
2019-05-25T09:44:47.324Z,20.08
2019-05-25T09:45:47.244Z,20.23
2019-05-25T09:46:47.175Z,20.43
2019-05-25T09:47:47.103Z,20.57
2019-05-25T09:48:47.033Z,20.71
2019-05-25T09:49:46.960Z,20.75
2019-05-25T09:50:46.891Z,20.68
2019-05-25T09:51:48.705Z,20.64
2019-05-25T09:52:46.751Z,20.49
2019-05-25T09:53:46.678Z,20.43
2019-05-25T09:54:46.608Z,20.43
2019-05-25T09:55:46.543Z,20.42
2019-05-25T09:56:46.471Z,20.51
2019-05-25T09:57:46.396Z,20.71
2019-05-25T09:59:28.916Z,20.76
2019-05-25T10:00:28.752Z,20.50
2019-05-25T10:01:28.682Z,20.47
2019-05-25T10:02:28.606Z,20.38
2019-05-25T10:03:28.532Z,20.28
2019-05-25T10:04:28.463Z,20.24
2019-05-25T10:05:28.391Z,20.43
2019-05-25T10:06:28.319Z,20.54
2019-05-25T10:07:28.249Z,20.53
2019-05-25T10:08:28.177Z,20.62
2019-05-25T10:09:28.106Z,20.83
2019-05-25T10:10:28.034Z,20.87
2019-05-25T10:11:27.964Z,20.99
2019-05-25T10:12:27.892Z,21.06
2019-05-25T10:13:27.822Z,21.16
2019-05-25T10:14:27.749Z,21.11
2019-05-25T10:15:28.458Z,21.21
2019-05-25T10:16:27.608Z,21.14
2019-05-25T10:17:27.534Z,21.33
2019-05-25T10:19:27.396Z,21.59
2019-05-25T10:20:27.320Z,21.44
2019-05-25T10:21:27.250Z,21.24
2019-05-25T10:22:27.178Z,21.08
2019-05-25T10:23:27.136Z,21.14
2019-05-25T10:24:27.037Z,21.20
2019-05-25T10:25:26.965Z,21.27
2019-05-25T10:26:26.895Z,21.27
2019-05-25T10:27:26.825Z,21.24
2019-05-25T10:28:26.754Z,21.11
2019-05-25T10:29:36.472Z,21.21
2019-05-25T10:30:26.613Z,21.27
2019-05-25T10:31:26.542Z,21.33
2019-05-25T10:32:26.502Z,21.35
2019-05-25T10:33:26.404Z,21.48
2019-05-25T10:34:26.335Z,21.42
2019-05-25T10:35:26.263Z,21.42
2019-05-25T10:36:26.292Z,21.63
2019-05-25T10:37:26.123Z,21.49
2019-05-25T10:38:26.051Z,21.60
2019-05-25T10:39:25.981Z,21.49
2019-05-25T10:40:25.910Z,21.60
2019-05-25T10:41:25.842Z,21.61
2019-05-25T10:42:25.767Z,21.54
2019-05-25T10:43:25.699Z,21.45
2019-05-25T10:44:25.690Z,21.44
2019-05-25T10:45:25.603Z,21.45
2019-05-25T10:46:25.492Z,21.46
2019-05-25T10:47:25.413Z,21.67
2019-05-25T10:48:25.341Z,21.95
2019-05-25T10:49:25.272Z,22.22
2019-05-25T10:50:25.200Z,22.31
2019-05-25T10:51:25.129Z,22.19
2019-05-25T10:52:25.059Z,22.35
2019-05-25T10:53:24.988Z,22.47
2019-05-25T10:54:24.917Z,22.54
2019-05-25T10:55:24.846Z,22.26
2019-05-25T10:56:24.776Z,22.30
2019-05-25T10:57:24.706Z,22.34
2019-05-25T10:58:24.633Z,22.62
2019-05-25T10:59:24.563Z,22.83
2019-05-25T11:00:27.176Z,22.71
2019-05-25T11:01:24.429Z,22.50
2019-05-25T11:02:24.357Z,22.46
2019-05-25T11:03:24.280Z,22.17
2019-05-25T11:04:24.212Z,21.92
2019-05-25T11:05:24.141Z,21.78
2019-05-25T11:06:24.069Z,21.74
2019-05-25T11:07:24.000Z,21.70
2019-05-25T11:08:23.931Z,21.76
2019-05-25T11:09:23.860Z,21.85
2019-05-25T11:10:23.790Z,22.01
2019-05-25T11:11:23.721Z,21.94
2019-05-25T11:12:26.023Z,22.15
2019-05-25T11:13:23.581Z,22.34
2019-05-25T11:14:23.527Z,22.50
2019-05-25T11:15:23.446Z,22.62
2019-05-25T11:16:23.374Z,22.90
2019-05-25T11:17:23.305Z,23.11
2019-05-25T11:18:23.262Z,23.26
2019-05-25T11:19:24.312Z,23.07
2019-05-25T11:20:23.100Z,22.83
2019-05-25T11:21:23.043Z,22.93
2019-05-25T11:22:22.970Z,23.00
2019-05-25T11:23:22.911Z,23.08
2019-05-25T11:24:22.827Z,23.04
2019-05-25T11:25:22.759Z,22.97
2019-05-25T11:26:22.690Z,22.94
2019-05-25T11:27:22.624Z,22.83
2019-05-25T11:28:22.556Z,22.72
2019-05-25T11:29:22.487Z,22.62
2019-05-25T11:30:22.420Z,22.81
2019-05-25T11:31:22.350Z,23.23
2019-05-25T11:32:22.283Z,23.37
2019-05-25T11:33:22.215Z,23.40
2019-05-25T11:34:22.155Z,23.12
2019-05-25T11:35:22.079Z,23.23
2019-05-25T11:36:22.010Z,23.82
2019-05-25T11:38:04.433Z,24.30
2019-05-25T11:39:06.988Z,24.19
2019-05-25T11:40:04.301Z,24.41
2019-05-25T11:41:05.446Z,24.63
2019-05-25T11:42:04.164Z,24.63
2019-05-25T11:43:04.100Z,25.01
2019-05-25T11:45:03.964Z,25.08
2019-05-25T11:46:03.898Z,25.04
2019-05-25T11:47:04.513Z,25.34
2019-05-25T11:48:03.770Z,25.31
2019-05-25T11:49:03.704Z,25.30
2019-05-25T11:50:03.637Z,25.79
2019-05-25T11:52:03.511Z,26.42
2019-05-25T11:53:06.288Z,25.99
2019-05-25T11:54:03.385Z,25.97
2019-05-25T11:55:03.417Z,26.09
2019-05-25T11:56:03.254Z,26.68
2019-05-25T11:57:03.189Z,27.02
2019-05-25T11:58:03.161Z,27.29
2019-05-25T11:59:03.064Z,27.77
2019-05-25T12:00:05.625Z,28.07
2019-05-25T12:01:02.942Z,28.26
2019-05-25T12:02:50.378Z,27.07
2019-05-25T12:03:50.317Z,26.50
2019-05-25T12:04:50.256Z,27.17
2019-05-25T12:05:50.193Z,27.14
2019-05-25T12:06:50.138Z,26.45
2019-05-25T12:07:50.072Z,26.69
2019-05-25T12:08:50.011Z,26.55
2019-05-25T12:09:49.949Z,26.46
2019-05-25T12:10:49.916Z,26.08
2019-05-25T12:11:49.827Z,25.71
2019-05-25T12:12:49.766Z,24.80
2019-05-25T12:13:49.703Z,24.64
2019-05-25T12:14:49.643Z,24.35
2019-05-25T12:15:49.783Z,24.35
2019-05-25T12:16:49.518Z,24.47
2019-05-25T12:17:49.456Z,25.02
2019-05-25T12:18:49.394Z,25.45
2019-05-25T12:19:49.332Z,25.64
2019-05-25T12:20:49.266Z,26.01
2019-05-25T12:21:49.205Z,26.16
2019-05-25T12:22:49.142Z,26.04
2019-05-25T12:23:49.109Z,26.35
2019-05-25T12:24:49.018Z,26.45
2019-05-25T12:25:48.966Z,26.82
2019-05-25T12:27:49.707Z,27.09
2019-05-25T12:28:48.768Z,27.91
2019-05-25T12:29:48.714Z,28.14
2019-05-25T12:31:31.140Z,28.06
2019-05-25T12:32:31.081Z,27.99
2019-05-25T12:33:31.021Z,26.97
2019-05-25T12:34:30.959Z,26.45
2019-05-25T12:35:30.899Z,26.20
2019-05-25T12:36:30.840Z,26.32
2019-05-25T12:37:30.778Z,26.67
2019-05-25T12:38:30.714Z,26.84
2019-05-25T12:39:30.653Z,27.02
2019-05-25T12:40:30.592Z,26.75
2019-05-25T12:41:30.530Z,26.47
2019-05-25T12:42:30.467Z,26.50
2019-05-25T12:43:30.405Z,26.57
2019-05-25T12:44:30.345Z,27.13
2019-05-25T12:45:30.285Z,27.26
2019-05-25T12:46:30.224Z,27.49
2019-05-25T12:47:30.161Z,27.64
2019-05-25T12:48:30.100Z,28.10
2019-05-25T12:49:48.487Z,27.79
2019-05-25T12:50:29.974Z,27.76
2019-05-25T12:51:29.919Z,27.36
2019-05-25T12:52:29.855Z,27.83
2019-05-25T12:53:29.795Z,28.71
2019-05-25T12:54:29.736Z,28.68
2019-05-25T12:55:29.669Z,28.25
2019-05-25T12:56:29.610Z,27.87
2019-05-25T12:57:29.549Z,27.46
2019-05-25T12:58:29.488Z,26.84